aviador You're here:

CYBW Decoded Metar

CALGARY/SPRINGBA in AB, CANADA
Report Time2018-05-23 20:00:00
UTC Time2018-05-23 20:40:53
Flight Rules vfr VFR
Wind180° at 09 Gusting to 17 kt
W.Decomp.*RWY 17: 9.0 kt HW 0.8 kt LCW
RWY 08: 0.8 kt HW 9.0 kt RCW
W.Rank180° ranks 17
Current wind is above 180° avg. (6.1)
Visibility9999 m
Phenomena:N/A
Clouds:Broken 095 Hf
Expected CloudBase > 8,400 ft AGL from Temp-Dew spread
Ceiling9,500 ft
Temp25°C (ISA +18)
Dew Point04°C (26% RH)
AAT20.5°C
QNH1012 hPa
Density Alt6,125 ft
Elevation3,937 ft
Report Wrong Elevation
Raw Report
CYBW 232000Z AUTO 18009G17KT 110V190 9SM BKN095 25/04 A2987 RMK
SLP109 DENSITY ALT 6000FT=

Extra information for CYBW:More info

Metar Taf Metar & Taf Last 4 Metars F.Rules Stats Wind Profile Meteogram Temp Stats Airport Information Weather charts Add Link Nearby VenuesMetar ALERT Operation Metar Decoded Social comments